createdAt,value
2022-10-16T00:00:21.971Z,17.34
2022-10-16T00:02:26.847Z,17.32
2022-10-16T00:04:31.633Z,17.31
2022-10-16T00:06:36.482Z,17.31
2022-10-16T00:08:42.011Z,17.29
2022-10-16T00:10:49.356Z,17.30
2022-10-16T00:12:54.353Z,17.30
2022-10-16T00:14:59.166Z,17.30
2022-10-16T00:17:04.131Z,17.32
2022-10-16T00:19:09.439Z,17.32
2022-10-16T00:21:14.849Z,17.28
2022-10-16T00:23:19.745Z,17.26
2022-10-16T00:25:24.518Z,17.25
2022-10-16T00:27:31.999Z,17.24
2022-10-16T00:29:37.606Z,17.22
2022-10-16T00:31:42.506Z,17.22
2022-10-16T00:33:47.713Z,17.25
2022-10-16T00:35:52.868Z,17.25
2022-10-16T00:37:57.703Z,17.26
2022-10-16T00:40:02.510Z,17.23
2022-10-16T00:42:07.675Z,17.23
2022-10-16T00:44:27.176Z,17.18
2022-10-16T00:46:40.777Z,17.17
2022-10-16T00:48:49.425Z,17.14
2022-10-16T00:50:54.378Z,17.14
2022-10-16T00:52:59.700Z,17.06
2022-10-16T00:55:06.689Z,17.06
2022-10-16T00:57:11.889Z,17.06
2022-10-16T00:59:19.293Z,17.02
2022-10-16T01:01:26.387Z,17.01
2022-10-16T01:03:36.106Z,17.00
2022-10-16T01:05:48.394Z,17.01
2022-10-16T01:08:01.917Z,17.03
2022-10-16T01:10:13.073Z,17.02
2022-10-16T01:12:24.031Z,17.04
2022-10-16T01:14:40.209Z,17.04
2022-10-16T01:16:53.055Z,17.02
2022-10-16T01:19:09.525Z,17.02
2022-10-16T01:21:19.777Z,17.04
2022-10-16T01:23:40.487Z,17.02
2022-10-16T01:26:03.372Z,17.02
2022-10-16T01:28:15.756Z,17.02
2022-10-16T01:30:25.689Z,17.01
2022-10-16T01:32:37.832Z,16.99
2022-10-16T01:34:49.831Z,16.95
2022-10-16T01:37:00.682Z,16.96
2022-10-16T01:39:06.857Z,17.00
2022-10-16T01:41:15.474Z,17.00
2022-10-16T01:43:29.367Z,17.00
2022-10-16T01:45:36.664Z,16.97
2022-10-16T01:47:42.633Z,16.97
2022-10-16T01:49:48.755Z,16.94
2022-10-16T01:51:58.505Z,16.95
2022-10-16T01:54:05.865Z,16.96
2022-10-16T01:56:13.542Z,16.98
2022-10-16T01:58:18.571Z,16.94
2022-10-16T02:00:27.298Z,17.00
2022-10-16T02:02:34.359Z,17.00
2022-10-16T02:04:43.102Z,17.01
2022-10-16T02:06:47.982Z,17.01
2022-10-16T02:08:52.952Z,16.98
2022-10-16T02:10:58.634Z,16.99
2022-10-16T02:13:09.942Z,17.01
2022-10-16T02:15:15.012Z,17.00
2022-10-16T02:17:22.611Z,16.97
2022-10-16T02:19:27.888Z,16.95
2022-10-16T02:21:33.947Z,16.88
2022-10-16T02:23:47.035Z,16.89
2022-10-16T02:25:54.905Z,16.88
2022-10-16T02:28:04.877Z,16.87
2022-10-16T02:30:15.057Z,16.89
2022-10-16T02:32:27.667Z,16.88
2022-10-16T02:34:35.673Z,16.91
2022-10-16T02:36:41.718Z,16.88
2022-10-16T02:38:47.002Z,16.90
2022-10-16T02:40:52.460Z,16.90
2022-10-16T02:42:58.595Z,16.91
2022-10-16T02:45:03.566Z,16.92
2022-10-16T02:47:08.702Z,16.94
2022-10-16T02:49:16.380Z,16.90
2022-10-16T02:51:21.125Z,16.88
2022-10-16T02:53:25.891Z,16.88
2022-10-16T02:55:31.539Z,16.88
2022-10-16T02:57:37.860Z,16.87
2022-10-16T02:59:42.632Z,16.84
2022-10-16T03:01:47.444Z,16.84
2022-10-16T03:03:52.309Z,16.83
2022-10-16T03:05:59.679Z,16.85
2022-10-16T03:08:04.473Z,16.85
2022-10-16T03:10:10.286Z,16.85
2022-10-16T03:12:15.770Z,16.84
2022-10-16T03:14:20.575Z,16.83
2022-10-16T03:16:25.615Z,16.84
2022-10-16T03:18:30.386Z,16.82
2022-10-16T03:20:35.147Z,16.78
2022-10-16T03:22:42.605Z,16.77
2022-10-16T03:24:47.489Z,16.76
2022-10-16T03:26:52.315Z,16.71
2022-10-16T03:28:57.088Z,16.71
2022-10-16T03:31:01.948Z,16.70
2022-10-16T03:33:06.818Z,16.68
2022-10-16T03:35:11.952Z,16.66
2022-10-16T03:37:16.802Z,16.67
2022-10-16T03:39:26.615Z,16.64
2022-10-16T03:41:31.385Z,16.66
2022-10-16T03:43:36.177Z,16.66
2022-10-16T03:45:41.089Z,16.67
2022-10-16T03:47:45.880Z,16.67
2022-10-16T03:49:50.625Z,16.67
2022-10-16T03:51:55.465Z,16.65
2022-10-16T03:54:00.312Z,16.66
2022-10-16T03:56:08.135Z,16.70
2022-10-16T03:58:13.014Z,16.67
2022-10-16T04:00:18.051Z,16.69
2022-10-16T04:02:22.772Z,16.71
2022-10-16T04:04:27.667Z,16.69
2022-10-16T04:06:32.417Z,16.69
2022-10-16T04:08:37.968Z,16.71
2022-10-16T04:10:42.732Z,16.75
2022-10-16T04:12:50.134Z,16.78
2022-10-16T04:14:54.865Z,16.78
2022-10-16T04:16:59.713Z,16.80
2022-10-16T04:19:04.537Z,16.77
2022-10-16T04:21:10.255Z,16.80
2022-10-16T04:23:15.010Z,16.77
2022-10-16T04:25:20.138Z,16.72
2022-10-16T04:27:25.146Z,16.73
2022-10-16T04:29:32.780Z,16.71
2022-10-16T04:31:37.699Z,16.73
2022-10-16T04:33:42.615Z,16.73
2022-10-16T04:35:50.145Z,16.73
2022-10-16T04:37:55.092Z,16.72
2022-10-16T04:39:59.829Z,16.72
2022-10-16T04:42:04.617Z,16.72
2022-10-16T04:44:09.383Z,16.73
2022-10-16T04:46:16.764Z,16.75
2022-10-16T04:48:21.702Z,16.73
2022-10-16T04:50:26.672Z,16.74
2022-10-16T04:52:43.752Z,16.77
2022-10-16T04:54:48.822Z,16.78
2022-10-16T04:56:53.563Z,16.77
2022-10-16T04:58:58.303Z,16.79
2022-10-16T05:01:03.060Z,16.77
2022-10-16T05:03:11.061Z,16.77
2022-10-16T05:05:15.909Z,16.75
2022-10-16T05:07:20.780Z,16.74
2022-10-16T05:09:25.722Z,16.71
2022-10-16T05:11:30.710Z,16.69
2022-10-16T05:13:35.489Z,16.65
2022-10-16T05:15:40.526Z,16.61
2022-10-16T05:17:45.311Z,16.55
2022-10-16T05:19:52.814Z,16.53
2022-10-16T05:21:57.536Z,16.51
2022-10-16T05:24:02.333Z,16.48
2022-10-16T05:26:07.534Z,16.45
2022-10-16T05:28:12.336Z,16.46
2022-10-16T05:30:17.095Z,16.45
2022-10-16T05:32:22.876Z,16.43
2022-10-16T05:34:27.632Z,16.42
2022-10-16T05:36:34.985Z,16.45
2022-10-16T05:38:41.188Z,16.49
2022-10-16T05:40:46.029Z,16.53
2022-10-16T05:42:50.757Z,16.55
2022-10-16T05:44:55.734Z,16.56
2022-10-16T05:47:00.622Z,16.57
2022-10-16T05:49:05.453Z,16.59
2022-10-16T05:51:13.568Z,16.58
2022-10-16T05:53:26.506Z,16.60
2022-10-16T05:55:31.214Z,16.59
2022-10-16T05:57:36.062Z,16.56
2022-10-16T05:59:40.829Z,16.53
2022-10-16T06:01:45.639Z,16.54
2022-10-16T06:03:50.733Z,16.55
2022-10-16T06:05:55.925Z,16.52
2022-10-16T06:08:00.383Z,16.48
2022-10-16T06:10:09.848Z,16.48
2022-10-16T06:12:14.563Z,16.51
2022-10-16T06:14:20.449Z,16.52
2022-10-16T06:16:25.618Z,16.56
2022-10-16T06:18:30.398Z,16.56
2022-10-16T06:20:35.260Z,16.60
2022-10-16T06:22:40.022Z,16.65
2022-10-16T06:24:44.741Z,16.69
2022-10-16T06:26:52.364Z,16.72
2022-10-16T06:28:58.599Z,16.67
2022-10-16T06:31:07.288Z,16.67
2022-10-16T06:33:13.299Z,16.70
2022-10-16T06:35:18.137Z,16.72
2022-10-16T06:37:23.143Z,16.75
2022-10-16T06:39:27.920Z,16.80
2022-10-16T06:41:32.875Z,16.79
2022-10-16T06:43:49.758Z,16.80
2022-10-16T06:45:55.777Z,16.81
2022-10-16T06:48:03.869Z,16.80
2022-10-16T06:50:10.268Z,16.84
2022-10-16T06:52:15.175Z,16.82
2022-10-16T06:54:20.223Z,16.85
2022-10-16T06:56:27.237Z,16.85
2022-10-16T06:58:32.085Z,16.86
2022-10-16T07:00:39.485Z,16.88
2022-10-16T07:02:44.208Z,16.90
2022-10-16T07:04:48.942Z,16.90
2022-10-16T07:06:53.716Z,16.90
2022-10-16T07:08:58.563Z,16.88
2022-10-16T07:11:05.100Z,16.92
2022-10-16T07:13:14.177Z,16.93
2022-10-16T07:15:19.022Z,16.96
2022-10-16T07:17:28.147Z,17.02
2022-10-16T07:19:34.520Z,17.00
2022-10-16T07:21:39.544Z,16.97
2022-10-16T07:23:45.157Z,16.99
2022-10-16T07:25:56.749Z,17.04
2022-10-16T07:28:01.549Z,17.11
2022-10-16T07:30:09.113Z,17.16
2022-10-16T07:32:14.162Z,17.24
2022-10-16T07:34:22.964Z,17.32
2022-10-16T07:36:28.082Z,17.37
2022-10-16T07:38:32.666Z,17.35
2022-10-16T07:40:37.483Z,17.34
2022-10-16T07:42:42.392Z,17.34
2022-10-16T07:44:47.149Z,17.33
2022-10-16T07:46:52.076Z,17.34
2022-10-16T07:48:56.967Z,17.34
2022-10-16T07:51:06.220Z,17.37
2022-10-16T07:53:11.335Z,17.39
2022-10-16T07:55:15.943Z,17.40
2022-10-16T07:57:21.162Z,17.42
2022-10-16T07:59:27.542Z,17.45
2022-10-16T08:01:32.336Z,17.46
2022-10-16T08:03:37.470Z,17.53
2022-10-16T08:05:43.049Z,17.54
2022-10-16T08:07:54.814Z,17.60
2022-10-16T08:09:59.960Z,17.60
2022-10-16T08:12:05.343Z,17.63
2022-10-16T08:14:10.576Z,17.69
2022-10-16T08:16:15.911Z,17.72
2022-10-16T08:18:20.847Z,17.76
2022-10-16T08:20:25.660Z,17.76
2022-10-16T08:22:30.556Z,17.78
2022-10-16T08:24:38.035Z,17.81
2022-10-16T08:26:42.804Z,17.85
2022-10-16T08:28:47.648Z,17.86
2022-10-16T08:30:52.565Z,17.94
2022-10-16T08:32:57.473Z,17.98
2022-10-16T08:35:02.220Z,18.03
2022-10-16T08:37:08.588Z,18.10
2022-10-16T08:39:13.433Z,18.16
2022-10-16T08:41:36.125Z,18.19
2022-10-16T08:43:54.881Z,18.29
2022-10-16T08:46:22.373Z,18.38
2022-10-16T08:48:34.102Z,18.47
2022-10-16T08:50:42.558Z,18.58
2022-10-16T08:52:48.797Z,18.63
2022-10-16T08:54:57.727Z,18.67
2022-10-16T08:57:13.603Z,18.68
2022-10-16T08:59:20.724Z,18.66
2022-10-16T09:01:27.866Z,18.69
2022-10-16T09:03:44.669Z,18.73
2022-10-16T09:06:06.570Z,18.80
2022-10-16T09:08:21.151Z,18.80
2022-10-16T09:10:38.891Z,18.86
2022-10-16T09:12:56.717Z,18.90
2022-10-16T09:15:10.637Z,18.95
2022-10-16T09:17:34.798Z,19.03
2022-10-16T09:19:46.183Z,19.07
2022-10-16T09:21:52.026Z,19.09
2022-10-16T09:23:59.233Z,19.12
2022-10-16T09:26:05.365Z,19.14
2022-10-16T09:28:13.491Z,19.23
2022-10-16T09:30:21.010Z,19.21
2022-10-16T09:32:26.833Z,19.23
2022-10-16T09:34:35.852Z,19.30
2022-10-16T09:36:45.822Z,19.30
2022-10-16T09:38:51.197Z,19.27
2022-10-16T09:41:02.415Z,19.30
2022-10-16T09:43:29.604Z,19.31
2022-10-16T09:45:34.590Z,19.30
2022-10-16T09:47:43.983Z,19.33
2022-10-16T09:49:56.192Z,19.33
2022-10-16T09:52:08.267Z,19.33
2022-10-16T09:54:19.054Z,19.30
2022-10-16T09:56:28.451Z,19.31
2022-10-16T09:58:36.745Z,19.33
2022-10-16T10:00:46.113Z,19.34
2022-10-16T10:02:51.433Z,19.36
2022-10-16T10:04:58.272Z,19.40
2022-10-16T10:07:03.101Z,19.43
2022-10-16T10:09:17.782Z,19.52
2022-10-16T10:11:22.593Z,19.57
2022-10-16T10:13:30.653Z,19.66
2022-10-16T10:15:45.602Z,19.78
2022-10-16T10:17:52.082Z,19.85
2022-10-16T10:19:58.799Z,19.92
2022-10-16T10:22:03.702Z,19.98
2022-10-16T10:24:08.902Z,20.03
2022-10-16T10:26:19.794Z,20.12
2022-10-16T10:28:50.560Z,20.22
2022-10-16T10:31:05.093Z,20.24
2022-10-16T10:33:22.690Z,20.26
2022-10-16T10:35:36.767Z,20.27
2022-10-16T10:37:55.030Z,20.38
2022-10-16T10:40:06.370Z,20.44
2022-10-16T10:42:22.027Z,20.45
2022-10-16T10:44:34.419Z,20.45
2022-10-16T10:46:49.709Z,20.52
2022-10-16T10:49:18.465Z,20.61
2022-10-16T10:51:33.246Z,20.68
2022-10-16T10:53:49.171Z,20.75
2022-10-16T10:56:03.079Z,20.79
2022-10-16T10:58:31.042Z,20.86
2022-10-16T11:00:52.280Z,20.89
2022-10-16T11:03:13.280Z,20.90
2022-10-16T11:05:44.301Z,20.94
2022-10-16T11:07:55.397Z,20.97
2022-10-16T11:10:03.274Z,20.98
2022-10-16T11:12:15.638Z,21.05
2022-10-16T11:14:24.895Z,21.09
2022-10-16T11:16:32.619Z,21.10
2022-10-16T11:18:49.338Z,21.12
2022-10-16T11:20:58.375Z,21.16
2022-10-16T11:23:11.613Z,21.28
2022-10-16T11:25:20.009Z,21.34
2022-10-16T11:27:30.327Z,21.38
2022-10-16T11:29:37.410Z,21.36
2022-10-16T11:31:45.472Z,21.39
2022-10-16T11:33:58.935Z,21.44
2022-10-16T11:36:10.196Z,21.51
2022-10-16T11:38:23.511Z,21.53
2022-10-16T11:40:34.488Z,21.51
2022-10-16T11:42:44.396Z,21.47
2022-10-16T11:44:58.955Z,21.48
2022-10-16T11:47:39.730Z,21.48
2022-10-16T11:49:45.610Z,21.48
2022-10-16T11:52:00.399Z,21.47
2022-10-16T11:54:09.688Z,21.40
2022-10-16T11:56:17.548Z,21.35
2022-10-16T11:58:32.062Z,21.29
2022-10-16T12:00:44.544Z,21.21
2022-10-16T12:02:59.025Z,21.18
2022-10-16T12:05:18.194Z,21.13
2022-10-16T12:07:29.040Z,21.16
2022-10-16T12:09:35.585Z,21.21
2022-10-16T12:11:42.314Z,21.10
2022-10-16T12:13:49.316Z,21.10
2022-10-16T12:15:59.139Z,21.12
2022-10-16T12:18:04.655Z,21.17
2022-10-16T12:20:31.324Z,21.16
2022-10-16T12:22:39.324Z,21.20
2022-10-16T12:24:47.134Z,21.29
2022-10-16T12:26:54.807Z,21.32
2022-10-16T12:29:13.318Z,21.34
2022-10-16T12:31:18.369Z,21.34
2022-10-16T12:33:27.765Z,21.36
2022-10-16T12:35:37.488Z,21.39
2022-10-16T12:37:42.460Z,21.40
2022-10-16T12:39:47.532Z,21.40
2022-10-16T12:42:03.858Z,21.36
2022-10-16T12:44:08.861Z,21.30
2022-10-16T12:46:25.966Z,21.11
2022-10-16T12:48:42.279Z,21.10
2022-10-16T12:50:56.649Z,21.15
2022-10-16T12:53:01.937Z,21.19
2022-10-16T12:55:08.738Z,21.29
2022-10-16T12:57:39.075Z,21.36
2022-10-16T12:59:50.149Z,21.41
2022-10-16T13:02:23.305Z,21.53
2022-10-16T13:04:55.056Z,21.68
2022-10-16T13:07:23.301Z,21.80
2022-10-16T13:09:39.528Z,21.97
2022-10-16T13:12:10.120Z,22.13
2022-10-16T13:14:32.472Z,22.27
2022-10-16T13:16:48.670Z,22.40
2022-10-16T13:19:02.336Z,22.50
2022-10-16T13:21:18.169Z,22.60
2022-10-16T13:23:31.190Z,22.64
2022-10-16T13:25:48.685Z,22.63
2022-10-16T13:27:59.003Z,22.53
2022-10-16T13:30:13.148Z,22.48
2022-10-16T13:32:19.493Z,22.46
2022-10-16T13:34:26.436Z,22.41
2022-10-16T13:36:33.072Z,22.32
2022-10-16T13:38:40.593Z,22.25
2022-10-16T13:41:00.164Z,22.19
2022-10-16T13:43:05.376Z,22.10
2022-10-16T13:45:22.284Z,22.11
2022-10-16T13:47:29.499Z,22.11
2022-10-16T13:49:34.889Z,22.11
2022-10-16T13:51:39.649Z,22.10
2022-10-16T13:53:48.807Z,22.07
2022-10-16T13:55:53.553Z,22.03
2022-10-16T13:58:08.990Z,22.03
2022-10-16T14:00:26.082Z,21.96
2022-10-16T14:02:36.001Z,21.85
2022-10-16T14:04:43.065Z,21.82
2022-10-16T14:06:50.198Z,21.82
2022-10-16T14:09:03.894Z,21.81
2022-10-16T14:11:09.013Z,21.78
2022-10-16T14:13:22.786Z,21.73
2022-10-16T14:15:28.857Z,21.72
2022-10-16T14:17:36.626Z,21.67
2022-10-16T14:19:41.498Z,21.64
2022-10-16T14:21:46.337Z,21.61
2022-10-16T14:23:51.211Z,21.61
2022-10-16T14:26:09.783Z,21.63
2022-10-16T14:28:20.818Z,21.63
2022-10-16T14:30:26.113Z,21.65
2022-10-16T14:32:31.663Z,21.63
2022-10-16T14:34:38.002Z,21.63
2022-10-16T14:36:45.032Z,21.61
2022-10-16T14:38:57.988Z,21.57
2022-10-16T14:41:07.110Z,21.56
2022-10-16T14:43:23.893Z,21.56
2022-10-16T14:45:34.351Z,21.59
2022-10-16T14:47:51.701Z,21.61
2022-10-16T14:50:00.142Z,21.65
2022-10-16T14:52:05.896Z,21.67
2022-10-16T14:54:11.998Z,21.70
2022-10-16T14:56:23.286Z,21.69
2022-10-16T14:58:31.196Z,21.66
2022-10-16T15:00:36.160Z,21.67
2022-10-16T15:02:40.939Z,21.70
2022-10-16T15:04:45.895Z,21.71
2022-10-16T15:06:50.685Z,21.73
2022-10-16T15:08:55.432Z,21.74
2022-10-16T15:11:00.479Z,21.77
2022-10-16T15:13:07.809Z,21.78
2022-10-16T15:15:32.733Z,21.80
2022-10-16T15:17:37.557Z,21.77
2022-10-16T15:19:42.401Z,21.79
2022-10-16T15:21:47.311Z,21.80
2022-10-16T15:23:53.504Z,21.78
2022-10-16T15:26:00.454Z,21.79
2022-10-16T15:28:08.935Z,21.77
2022-10-16T15:30:14.993Z,21.74
2022-10-16T15:32:19.794Z,21.74
2022-10-16T15:34:24.774Z,21.71
2022-10-16T15:36:34.856Z,21.69
2022-10-16T15:38:39.733Z,21.69
2022-10-16T15:40:45.275Z,21.68
2022-10-16T15:42:50.102Z,21.66
2022-10-16T15:44:57.468Z,21.66
2022-10-16T15:47:02.508Z,21.64
2022-10-16T15:49:07.998Z,21.62
2022-10-16T15:51:13.202Z,21.62
2022-10-16T15:53:17.970Z,21.60
2022-10-16T15:55:22.761Z,21.57
2022-10-16T15:57:27.709Z,21.53
2022-10-16T15:59:32.593Z,21.49
2022-10-16T16:01:40.113Z,21.47
2022-10-16T16:03:45.522Z,21.44
2022-10-16T16:05:50.785Z,21.44
2022-10-16T16:07:55.695Z,21.41
2022-10-16T16:10:00.431Z,21.39
2022-10-16T16:12:05.228Z,21.34
2022-10-16T16:14:10.459Z,21.35
2022-10-16T16:16:16.955Z,21.27
2022-10-16T16:18:26.710Z,21.25
2022-10-16T16:20:31.565Z,21.24
2022-10-16T16:22:36.496Z,21.21
2022-10-16T16:26:46.498Z,21.20
2022-10-16T16:28:51.450Z,21.17
2022-10-16T16:30:56.276Z,21.17
2022-10-16T16:33:01.032Z,21.13
2022-10-16T16:35:09.230Z,21.09
2022-10-16T16:37:13.977Z,21.05
2022-10-16T16:39:18.842Z,21.01
2022-10-16T16:41:26.816Z,20.95
2022-10-16T16:43:31.817Z,20.91
2022-10-16T16:45:38.746Z,20.82
2022-10-16T16:47:43.510Z,20.80
2022-10-16T16:49:48.512Z,20.80
2022-10-16T16:51:56.033Z,20.72
2022-10-16T16:54:00.812Z,20.66
2022-10-16T16:56:06.761Z,20.66
2022-10-16T16:58:12.255Z,20.66
2022-10-16T17:00:17.709Z,20.67
2022-10-16T17:02:22.650Z,20.66
2022-10-16T17:04:27.384Z,20.60
2022-10-16T17:06:33.283Z,20.60
2022-10-16T17:08:41.732Z,20.62
2022-10-16T17:10:49.819Z,20.62
2022-10-16T17:14:59.254Z,20.57
2022-10-16T17:17:04.261Z,20.60
2022-10-16T17:19:10.859Z,20.61
2022-10-16T17:21:15.868Z,20.61
2022-10-16T17:23:22.365Z,20.62
2022-10-16T17:25:32.016Z,20.64
2022-10-16T17:27:38.931Z,20.63
2022-10-16T17:29:43.730Z,20.65
2022-10-16T17:31:49.923Z,20.65
2022-10-16T17:33:55.089Z,20.66
2022-10-16T17:36:02.048Z,20.64
2022-10-16T17:38:06.964Z,20.61
2022-10-16T17:42:22.186Z,20.50
2022-10-16T17:44:27.224Z,20.43
2022-10-16T17:46:36.793Z,20.39
2022-10-16T17:48:47.114Z,20.35
2022-10-16T17:50:51.890Z,20.29
2022-10-16T17:52:56.626Z,20.25
2022-10-16T17:55:01.499Z,20.22
2022-10-16T17:57:06.302Z,20.21
2022-10-16T17:59:14.973Z,20.20
2022-10-16T18:01:22.144Z,20.15
2022-10-16T18:03:28.288Z,20.17
2022-10-16T18:05:33.094Z,20.17
2022-10-16T18:07:38.242Z,20.13
2022-10-16T18:10:09.899Z,20.13
2022-10-16T18:12:09.367Z,20.10
2022-10-16T18:14:17.359Z,20.02
2022-10-16T18:16:22.417Z,20.02
2022-10-16T18:18:29.554Z,20.02
2022-10-16T18:20:35.071Z,20.01
2022-10-16T18:22:39.750Z,19.98
2022-10-16T18:24:44.551Z,20.01
2022-10-16T18:26:49.378Z,19.97
2022-10-16T18:28:55.833Z,19.95
2022-10-16T18:31:05.532Z,19.96
2022-10-16T18:33:10.534Z,19.92
2022-10-16T18:35:15.300Z,19.94
2022-10-16T18:37:20.446Z,19.93
2022-10-16T18:39:27.544Z,19.91
2022-10-16T18:41:33.283Z,19.90
2022-10-16T18:43:40.682Z,19.89
2022-10-16T18:45:45.468Z,19.84
2022-10-16T18:47:52.862Z,19.81
2022-10-16T18:49:57.706Z,19.76
2022-10-16T18:52:03.356Z,19.66
2022-10-16T18:54:11.978Z,19.64
2022-10-16T18:56:18.054Z,19.60
2022-10-16T18:58:23.002Z,19.59
2022-10-16T19:00:27.777Z,19.58
2022-10-16T19:02:32.740Z,19.56
2022-10-16T19:04:40.176Z,19.54
2022-10-16T19:06:47.043Z,19.50
2022-10-16T19:08:52.327Z,19.46
2022-10-16T19:10:57.230Z,19.39
2022-10-16T19:13:02.003Z,19.34
2022-10-16T19:15:07.460Z,19.27
2022-10-16T19:17:12.327Z,19.21
2022-10-16T19:19:20.573Z,19.13
2022-10-16T19:21:29.797Z,19.07
2022-10-16T19:23:35.108Z,19.03
2022-10-16T19:25:40.438Z,18.99
2022-10-16T19:27:45.654Z,18.95
2022-10-16T19:29:50.146Z,18.85
2022-10-16T19:31:54.895Z,18.81
2022-10-16T19:34:02.981Z,18.80
2022-10-16T19:36:12.636Z,18.75
2022-10-16T19:38:19.952Z,18.70
2022-10-16T19:40:26.570Z,18.67
2022-10-16T19:42:31.353Z,18.61
2022-10-16T19:44:36.086Z,18.57
2022-10-16T19:46:40.933Z,18.51
2022-10-16T19:48:46.315Z,18.47
2022-10-16T19:50:51.781Z,18.43
2022-10-16T19:52:57.121Z,18.44
2022-10-16T19:55:04.497Z,18.42
2022-10-16T19:57:09.543Z,18.41
2022-10-16T19:59:19.130Z,18.37
2022-10-16T20:01:24.546Z,18.33
2022-10-16T20:03:35.648Z,18.32
2022-10-16T20:05:40.426Z,18.30
2022-10-16T20:07:45.489Z,18.28
2022-10-16T20:09:50.302Z,18.27
2022-10-16T20:11:57.661Z,18.27
2022-10-16T20:14:03.261Z,18.27
2022-10-16T20:16:09.356Z,18.26
2022-10-16T20:18:14.266Z,18.23
2022-10-16T20:20:19.096Z,18.22
2022-10-16T20:22:23.865Z,18.20
2022-10-16T20:24:29.896Z,18.18
2022-10-16T20:26:35.131Z,18.12
2022-10-16T20:28:43.560Z,18.09
2022-10-16T20:30:50.585Z,18.05
2022-10-16T20:32:56.813Z,18.02
2022-10-16T20:35:04.342Z,18.01
2022-10-16T20:37:11.889Z,17.99
2022-10-16T20:39:16.666Z,17.96
2022-10-16T20:41:22.499Z,17.85
2022-10-16T20:43:27.282Z,17.83
2022-10-16T20:45:34.733Z,17.81
2022-10-16T20:47:39.919Z,17.76
2022-10-16T20:49:44.788Z,17.72
2022-10-16T20:51:50.059Z,17.71
2022-10-16T20:53:55.589Z,17.66
2022-10-16T20:56:04.665Z,17.65
2022-10-16T20:58:09.395Z,17.63
2022-10-16T21:00:16.315Z,17.59
2022-10-16T21:04:31.373Z,17.60
2022-10-16T21:06:38.287Z,17.59
2022-10-16T21:08:45.173Z,17.62
2022-10-16T21:10:50.109Z,17.60
2022-10-16T21:12:56.542Z,17.59
2022-10-16T21:15:16.113Z,17.55
2022-10-16T21:17:24.071Z,17.52
2022-10-16T21:19:31.506Z,17.46
2022-10-16T21:21:38.471Z,17.45
2022-10-16T21:23:43.375Z,17.41
2022-10-16T21:25:51.607Z,17.42
2022-10-16T21:27:56.345Z,17.40
2022-10-16T21:30:01.160Z,17.39
2022-10-16T21:32:06.158Z,17.40
2022-10-16T21:34:13.538Z,17.40
2022-10-16T21:36:20.390Z,17.39
2022-10-16T21:38:25.860Z,17.39
2022-10-16T21:40:32.350Z,17.35
2022-10-16T21:42:37.118Z,17.28
2022-10-16T21:44:41.865Z,17.27
2022-10-16T21:46:47.667Z,17.22
2022-10-16T21:48:55.941Z,17.20
2022-10-16T21:51:03.333Z,17.19
2022-10-16T21:53:08.136Z,17.17
2022-10-16T21:55:13.234Z,17.18
2022-10-16T21:57:17.967Z,17.15
2022-10-16T21:59:25.940Z,17.14
2022-10-16T22:01:31.965Z,17.13
2022-10-16T22:03:36.946Z,17.08
2022-10-16T22:05:41.710Z,17.09
2022-10-16T22:07:49.034Z,17.08
2022-10-16T22:09:53.755Z,17.09
2022-10-16T22:11:58.510Z,17.08
2022-10-16T22:14:03.314Z,17.07
2022-10-16T22:16:08.937Z,17.07
2022-10-16T22:18:35.581Z,17.06
2022-10-16T22:20:40.319Z,17.04
2022-10-16T22:22:45.080Z,17.02
2022-10-16T22:24:52.417Z,17.02
2022-10-16T22:26:57.292Z,17.02
2022-10-16T22:29:02.182Z,17.01
2022-10-16T22:31:09.891Z,16.97
2022-10-16T22:33:15.551Z,16.92
2022-10-16T22:35:20.386Z,16.91
2022-10-16T22:37:28.079Z,16.89
2022-10-16T22:39:33.101Z,16.87
2022-10-16T22:41:40.789Z,16.85
2022-10-16T22:43:48.229Z,16.83
2022-10-16T22:45:53.001Z,16.82
2022-10-16T22:47:57.707Z,16.81
2022-10-16T22:50:02.471Z,16.81
2022-10-16T22:52:07.548Z,16.80
2022-10-16T22:54:12.314Z,16.78
2022-10-16T22:56:18.859Z,16.75
2022-10-16T22:58:29.534Z,16.75
2022-10-16T23:00:34.613Z,16.71
2022-10-16T23:02:43.607Z,16.67
2022-10-16T23:04:48.401Z,16.65
2022-10-16T23:06:53.196Z,16.64
2022-10-16T23:08:59.550Z,16.66
2022-10-16T23:11:09.115Z,16.67
2022-10-16T23:13:14.754Z,16.65
2022-10-16T23:15:22.136Z,16.62
2022-10-16T23:17:27.039Z,16.60
2022-10-16T23:19:31.903Z,16.57
2022-10-16T23:21:36.593Z,16.55
2022-10-16T23:23:42.431Z,16.51
2022-10-16T23:25:50.846Z,16.54
2022-10-16T23:27:56.721Z,16.52
2022-10-16T23:30:01.604Z,16.52
2022-10-16T23:32:09.019Z,16.53
2022-10-16T23:34:13.735Z,16.52
2022-10-16T23:36:20.621Z,16.52
2022-10-16T23:38:27.143Z,16.52
2022-10-16T23:40:31.954Z,16.49
2022-10-16T23:42:36.992Z,16.49
2022-10-16T23:44:41.771Z,16.48
2022-10-16T23:46:46.496Z,16.43
2022-10-16T23:48:53.941Z,16.42
2022-10-16T23:50:58.654Z,16.39
2022-10-16T23:53:06.586Z,16.39
2022-10-16T23:55:14.896Z,16.38
2022-10-16T23:57:19.671Z,16.38
2022-10-16T23:59:24.613Z,16.37
